地図

経路データ

SID SEASON NUMBER BASIN SUBBASIN NAME ISO_TIME NATURE LAT LON WMO_WIND WMO_PRES WMO_AGENCY TRACK_TYPE DIST2LAND LANDFALL IFLAG USA_AGENCY USA_ATCF_ID USA_LAT USA_LON USA_RECORD USA_STATUS USA_WIND USA_PRES USA_SSHS USA_R34_NE USA_R34_SE USA_R34_SW USA_R34_NW USA_R50_NE USA_R50_SE USA_R50_SW USA_R50_NW USA_R64_NE USA_R64_SE USA_R64_SW USA_R64_NW USA_POCI USA_ROCI USA_RMW USA_EYE TOKYO_LAT TOKYO_LON TOKYO_GRADE TOKYO_WIND TOKYO_PRES TOKYO_R50_DIR TOKYO_R50_LONG TOKYO_R50_SHORT TOKYO_R30_DIR TOKYO_R30_LONG TOKYO_R30_SHORT TOKYO_LAND CMA_LAT CMA_LON CMA_CAT CMA_WIND CMA_PRES HKO_LAT HKO_LON HKO_CAT HKO_WIND HKO_PRES NEWDELHI_LAT NEWDELHI_LON NEWDELHI_GRADE NEWDELHI_WIND NEWDELHI_PRES NEWDELHI_CI NEWDELHI_DP NEWDELHI_POCI REUNION_LAT REUNION_LON REUNION_TYPE REUNION_WIND REUNION_PRES REUNION_TNUM REUNION_CI REUNION_RMW REUNION_R34_NE REUNION_R34_SE REUNION_R34_SW REUNION_R34_NW REUNION_R50_NE REUNION_R50_SE REUNION_R50_SW REUNION_R50_NW REUNION_R64_NE REUNION_R64_SE REUNION_R64_SW REUNION_R64_NW BOM_LAT BOM_LON BOM_TYPE BOM_WIND BOM_PRES BOM_TNUM BOM_CI BOM_RMW BOM_R34_NE BOM_R34_SE BOM_R34_SW BOM_R34_NW BOM_R50_NE BOM_R50_SE BOM_R50_SW BOM_R50_NW BOM_R64_NE BOM_R64_SE BOM_R64_SW BOM_R64_NW BOM_ROCI BOM_POCI BOM_EYE BOM_POS_METHOD BOM_PRES_METHOD NADI_LAT NADI_LON NADI_CAT NADI_WIND NADI_PRES WELLINGTON_LAT WELLINGTON_LON WELLINGTON_WIND WELLINGTON_PRES DS824_LAT DS824_LON DS824_STAGE DS824_WIND DS824_PRES TD9636_LAT TD9636_LON TD9636_STAGE TD9636_WIND TD9636_PRES TD9635_LAT TD9635_LON TD9635_WIND TD9635_PRES TD9635_ROCI NEUMANN_LAT NEUMANN_LON NEUMANN_CLASS NEUMANN_WIND NEUMANN_PRES MLC_LAT MLC_LON MLC_CLASS MLC_WIND MLC_PRES USA_GUST BOM_GUST BOM_GUST_PER REUNION_GUST REUNION_GUST_PER USA_SEAHGT USA_SEARAD_NE USA_SEARAD_SE USA_SEARAD_SW USA_SEARAD_NW STORM_SPEED STORM_DIR
1982324N10193 1982 100 EP CP IWA 1982-11-19 12:00:00 TS 9.66000 -166.600 40 hurdat_epa main 1556 1556 O_________O___ hurdat_epa CP041982 9.70000 -166.600 TS 40 0 9.70000 -166.600 2 40 0 0
1982324N10193 1982 100 EP CP IWA 1982-11-19 15:00:00 TS 9.67727 -166.587 main 1556 1536 P_________P___ CP041982 9.54750 -166.570 TS 40 0 10.0564 -166.655 2 40 2 0
1982324N10193 1982 100 EP CP IWA 1982-11-19 18:00:00 TS 9.87804 -166.622 40 hurdat_epa main 1536 1501 O_________P___ hurdat_epa CP041982 9.70000 -166.600 TS 40 0 10.3902 -166.708 2 40 7 349
1982324N10193 1982 100 EP CP IWA 1982-11-19 21:00:00 TS 10.3503 -166.723 main 1492 1458 P_________P___ CP041982 10.3075 -166.715 TS 40 0 10.6789 -166.757 2 40 9 349
1982324N10193 1982 100 EP CP IWA 1982-11-20 00:00:00 TS 10.8000 -166.800 40 hurdat_epa main 1458 1443 O_________O___ hurdat_epa CP041982 10.9000 -166.800 TS 40 0 10.9000 -166.800 2 40 5 357
1982324N10193 1982 100 EP CP IWA 1982-11-20 03:00:00 TS 10.8640 -166.744 main 1443 1437 P_________P___ CP041982 10.8950 -166.722 TS 40 0 11.0425 -166.830 2 40 2 66
1982324N10193 1982 100 EP CP IWA 1982-11-20 06:00:00 TS 10.8684 -166.643 40 hurdat_epa main 1437 1418 O_________P___ hurdat_epa CP041982 10.8000 -166.600 TS 40 0 11.1419 -166.814 2 40 3 28
1982324N10193 1982 100 EP CP IWA 1982-11-20 09:00:00 TS 11.0885 -166.625 main 1418 1383 P_________P___ CP041982 11.0399 -166.602 TS 40 0 11.2454 -166.717 2 40 6 15
1982324N10193 1982 100 EP CP IWA 1982-11-20 12:00:00 TS 11.4000 -166.500 40 hurdat_epa main 1383 1332 O_________O___ hurdat_epa CP041982 11.4000 -166.500 TS 40 0 11.4000 -166.500 2 40 8 38
1982324N10193 1982 100 EP CP IWA 1982-11-20 15:00:00 TS 11.7394 -166.114 main 1332 1267 P_________P___ CP041982 11.7500 -166.125 TS 40 0 11.6969 -166.071 2 42 11 52
1982324N10193 1982 100 EP CP IWA 1982-11-20 18:00:00 TS 12.0888 -165.586 40 hurdat_epa main 1267 1207 O_________P___ hurdat_epa CP041982 12.1000 -165.600 TS 40 0 12.0439 -165.532 2 45 13 57
1982324N10193 1982 100 EP CP IWA 1982-11-20 21:00:00 TS 12.4274 -165.012 main 1207 1153 P_________P___ CP041982 12.4377 -165.020 TS 45 0 12.3939 -164.977 2 47 12 60
1982324N10193 1982 100 EP CP IWA 1982-11-21 00:00:00 TS 12.7000 -164.500 50 hurdat_epa main 1153 1130 O_________O___ hurdat_epa CP041982 12.7000 -164.500 TS 50 0 12.7000 -164.500 2 50 9 63
1982324N10193 1982 100 EP CP IWA 1982-11-21 03:00:00 TS 12.8410 -164.188 main 1130 1109 P_________P___ CP041982 12.8148 -164.182 TS 50 0 12.8957 -164.211 2 50 5 63
1982324N10193 1982 100 EP CP IWA 1982-11-21 06:00:00 TS 12.9489 -164.003 50 hurdat_epa main 1109 1086 O_________P___ hurdat_epa CP041982 12.9000 -164.000 TS 50 0 13.0444 -164.014 2 50 4 46
1982324N10193 1982 100 EP CP IWA 1982-11-21 09:00:00 TS 13.1311 -163.879 main 1086 1061 P_________P___ CP041982 13.0925 -163.877 TS 50 0 13.1709 -163.886 2 50 4 28
1982324N10193 1982 100 EP CP IWA 1982-11-21 12:00:00 TS 13.3200 -163.800 50 hurdat_epa main 1061 1036 O_________O___ hurdat_epa CP041982 13.3000 -163.800 TS 50 0 13.3000 -163.800 2 50 4 29
1982324N10193 1982 100 EP CP IWA 1982-11-21 15:00:00 TS 13.4652 -163.689 main 1036 1022 P_________P___ CP041982 13.4500 -163.685 TS 50 0 13.4759 -163.706 2 51 3 32
1982324N10193 1982 100 EP CP IWA 1982-11-21 18:00:00 TS 13.6115 -163.609 50 hurdat_epa main 1022 1001 O_________P___ hurdat_epa CP041982 13.6000 -163.600 TS 50 0 13.6574 -163.647 2 52 3 14
1982324N10193 1982 100 EP CP IWA 1982-11-21 21:00:00 TS 13.7995 -163.597 main 1001 981 P_________P___ CP041982 13.7925 -163.592 TS 52 0 13.8353 -163.615 2 53 4 0
1982324N10193 1982 100 EP CP IWA 1982-11-22 00:00:00 TS 14.0000 -163.600 55 hurdat_epa main 981 960 O_________O___ hurdat_epa CP041982 14.0000 -163.600 TS 55 0 14.0000 -163.600 2 55 4 6
1982324N10193 1982 100 EP CP IWA 1982-11-22 03:00:00 TS 14.1931 -163.548 main 956 945 P_________P___ CP041982 14.2225 -163.543 TS 55 0 14.0906 -163.570 2 55 4 15
1982324N10193 1982 100 EP CP IWA 1982-11-22 06:00:00 TS 14.3550 -163.511 55 hurdat_epa main 935 935 O_________P___ hurdat_epa CP041982 14.4000 -163.500 TS 55 0 14.1750 -163.555 2 55 2 2
1982324N10193 1982 100 EP CP IWA 1982-11-22 09:00:00 TS 14.4304 -163.541 main 935 929 P_________P___ CP041982 14.4425 -163.535 TS 55 0 14.2969 -163.563 2 55 2 334
1982324N10193 1982 100 EP CP IWA 1982-11-22 12:00:00 TS 14.5400 -163.600 55 hurdat_epa main 929 909 O_________O___ hurdat_epa CP041982 14.5000 -163.600 TS 55 0 14.5000 -163.600 2 55 4 343
1982324N10193 1982 100 EP CP IWA 1982-11-22 15:00:00 TS 14.7643 -163.647 main 899 874 P_________P___ CP041982 14.6675 -163.635 TS 57 0 14.8064 -163.695 2 58 6 348
1982324N10193 1982 100 EP CP IWA 1982-11-22 18:00:00 TS 15.1200 -163.723 60 hurdat_epa main 874 835 O_________P___ hurdat_epa CP041982 15.0000 -163.700 TS 60 0 15.2002 -163.814 2 62 9 346
1982324N10193 1982 100 EP CP IWA 1982-11-22 21:00:00 TS 15.6043 -163.859 main 835 784 P_________P___ CP041982 15.5326 -163.842 TS 65 1 15.6689 -163.926 2 66 11 346
1982324N10193 1982 100 EP CP IWA 1982-11-23 00:00:00 TS 16.2000 -164.000 70 hurdat_epa main 784 735 O_________O___ hurdat_epa CP041982 16.2000 -164.000 HU 70 1 16.2000 -164.000 3 70 13 348
1982324N10193 1982 100 EP CP IWA 1982-11-23 03:00:00 TS 16.8594 -164.138 main 726 682 P_________P___ CP041982 16.9075 -164.152 HU 72 1 16.7547 -164.080 3 71 14 353
1982324N10193 1982 100 EP CP IWA 1982-11-23 06:00:00 TS 17.5333 -164.181 75 hurdat_epa main 682 625 O_________P___ hurdat_epa CP041982 17.6000 -164.200 HU 75 1 17.3664 -164.106 3 72 13 3
1982324N10193 1982 100 EP CP IWA 1982-11-23 09:00:00 TS 18.1124 -164.072 main 625 556 P_________P___ CP041982 18.1499 -164.082 HU 75 1 18.0199 -164.029 3 73 12 17
1982324N10193 1982 100 EP CP IWA 1982-11-23 12:00:00 TS 18.7000 -163.800 75 hurdat_epa main 556 489 O_________O___ hurdat_epa CP041982 18.7000 -163.800 HU 75 1 18.7000 -163.800 4 75 14 25
1982324N10193 1982 100 EP CP IWA 1982-11-23 15:00:00 TS 19.3768 -163.441 main 474 385 P_________P___ CP041982 19.3772 -163.432 HU 77 1 19.3676 -163.476 4 76 16 31
1982324N10193 1982 100 EP CP IWA 1982-11-23 18:00:00 TS 20.0915 -162.917 80 hurdat_epa main 385 296 O_________P___ hurdat_epa CP041982 20.1000 -162.900 HU 80 1 20.0575 -162.983 4 77 18 38
1982324N10193 1982 100 EP CP IWA 1982-11-23 21:00:00 TS 20.7730 -162.298 main 291 184 P_________P___ CP041982 20.7682 -162.305 HU 80 1 20.7688 -162.299 4 78 20 45
1982324N10193 1982 100 EP CP IWA 1982-11-24 00:00:00 TS 21.5000 -161.400 80 hurdat_epa main 174 45 O_________O___ hurdat_epa CP041982 21.5000 -161.400 HU 80 1 21.5000 -161.400 4 80 26 53
1982324N10193 1982 100 EP CP IWA 1982-11-24 03:00:00 TS 22.3538 -160.067 main 53 39 P_________P___ CP041982 22.4174 -159.970 HU 80 1 22.2740 -160.226 4 77 31 57
1982324N10193 1982 100 EP CP IWA 1982-11-24 06:00:00 TS 23.1907 -158.570 80 hurdat_epa main 142 142 O_________P___ hurdat_epa CP041982 23.3000 -158.400 HU 80 1 23.0537 -158.850 4 75 30 59
1982324N10193 1982 100 EP CP IWA 1982-11-24 09:00:00 TS 23.8937 -157.230 main 266 266 P_________P___ CP041982 23.9583 -157.130 HU 75 1 23.8054 -157.397 4 72 27 61
1982324N10193 1982 100 EP CP IWA 1982-11-24 12:00:00 TS 24.5000 -156.000 70 hurdat_epa main 377 377 O_________O___ hurdat_epa CP041982 24.5000 -156.000 HU 70 1 24.5000 -156.000 4 70 24 62
1982324N10193 1982 100 EP CP IWA 1982-11-24 15:00:00 TS 25.0273 -154.893 main 482 482 P_________P___ CP041982 24.9986 -154.933 HU 62 0 25.1206 -154.762 4 63 22 62
1982324N10193 1982 100 EP CP IWA 1982-11-24 18:00:00 TS 25.5363 -153.853 55 hurdat_epa main 567 567 O_________P___ hurdat_epa CP041982 25.5000 -153.900 TS 55 0 25.6814 -153.666 4 57 22 60
1982324N10193 1982 100 EP CP IWA 1982-11-24 21:00:00 TS 26.1007 -152.791 main 676 676 P_________P___ CP041982 26.0771 -152.821 TS 50 0 26.2020 -152.662 4 51 23 59
1982324N10193 1982 100 EP CP IWA 1982-11-25 00:00:00 TS 26.7000 -151.700 45 hurdat_epa main 791 O_________O___ hurdat_epa CP041982 26.7000 -151.700 TS 45 0 26.7000 -151.700 2 45 23 58

IBTrACS Databaseについて

本データベースは、米国NOAAが公開する1842年以降の世界の熱帯低気圧のベストトラックデータアーカイブInternational Best Track Archive for Climate Stewardship (IBTrACS)を、ウェブで閲覧しやすい形式に変換したものです。

最終更新日:2021-11-26